aviador You're here:

GMAD Decoded Metar

AL MASSIRA MC in MOROCCO
Report Time2018-02-17 23:30:00
UTC Time2018-02-17 23:36:28
Flight Rules mvfr MVFR
Wind080° at 03 kt
W.Decomp.*RWY 10: 2.9 kt HW 0.9 kt LCW
W.Rank080° ranks 9
Current wind is below 080° avg. (5.3)
Visibility6000 m
Phenomena:N/A
Clouds:Scattered 006 Hf
Expected CloudBase > 400 ft AGL from Temp-Dew spread
CeilingNone
Temp12°C (ISA -3)
Dew Point11°C (94% RH)
AAT11.3°C
QNH1020 hPa
Density Alt-118 ft
Elevation243 ft
Report Wrong Elevation
Raw Report
GMAD 172330Z 08003KT 030V100 6000 SCT006 12/11 Q1020 NOSIG=

Extra information for GMAD:More info

Metar Taf Metar & Taf Last 4 Metars F.Rules Stats Wind Profile Meteogram Temp Stats Airport Information Weather charts Add Link Nearby VenuesMetar ALERT Operation Metar Decoded Social comments